Hydrus — WDJ3145 — position and weather

sailwx.info

Track history (hours):
 
Tides and Currents Weather Stations Pressure Air Temp Water Temp Dewpoint Dewpoint Depression Visibility Wind Speed Wind Dir Waves Ship Positions

Hydrus

Owner: San Francisco Bay Area Water Emergency Transportation Authority, San Francisco, CA. More information available from US FCC via Universal Licensing System and Coast Guard Vessel Documentation Center.

Last reported at 2018-Feb-21 04:57 UTC. Time now 2018-Feb-23 16:09 UTC.
Position N 37°48' W 122°24'.

Length 41 m; draft 2 m.

Type: Passenger vessel. MMSI: 367765240.

Date/timePositionNaut miles runAvg speedWind from/ knotsBaromVisibWave heightAir tempDewpointWater temp
2018-Feb-21 04:57N 37°48' W 122°24'1 1.7
2018-Feb-21 04:30N 37°48' W 122°23'5 9.7
2018-Feb-21 04:00N 37°48' W 122°17'510.6
2018-Feb-21 03:30N 37°48' W 122°24'510.2
2018-Feb-21 03:01N 37°48' W 122°17'4 8.3
2018-Feb-21 02:31N 37°48' W 122°22'4 8.1
2018-Feb-21 02:00N 37°48' W 122°17'2 3.5
2018-Feb-21 01:30N 37°48' W 122°19'3 6.6
2018-Feb-21 01:01N 37°48' W 122°24'1 1.8
2018-Feb-21 00:30N 37°48' W 122°22'4 7.6
2018-Feb-21 00:00N 37°47' W 122°18'611.3
2018-Feb-20 23:30N 37°49' W 122°25'2 3.3
2018-Feb-20 23:01N 37°48' W 122°23'4 8.7
2018-Feb-20 22:30N 37°48' W 122°17'5 9.7
2018-Feb-20 22:00N 37°48' W 122°24'1 2.6
2018-Feb-20 21:31N 37°49' W 122°25'0 0.0
2018-Feb-20 21:01N 37°49' W 122°25'0 0.0
2018-Feb-20 20:31N 37°49' W 122°25'2 4.1
2018-Feb-20 20:01N 37°48' W 122°22'4 7.4
2018-Feb-20 19:31N 37°47' W 122°18'611.3
2018-Feb-20 19:00N 37°49' W 122°25'0 0.0
2018-Feb-20 18:30N 37°49' W 122°25'0 0.0
2018-Feb-20 18:00N 37°49' W 122°25'0 0.0
2018-Feb-20 17:30N 37°49' W 122°25'2 4.6
2018-Feb-20 17:01N 37°48' W 122°22'4 8.2
2018-Feb-20 16:30N 37°48' W 122°17'510.7
2018-Feb-20 16:01N 37°48' W 122°24'510.6
2018-Feb-20 15:30N 37°48' W 122°17'510.4
2018-Feb-20 15:00N 37°48' W 122°24'510.8
2018-Feb-20 14:30N 37°48' W 122°17'611.7
2018-Feb-20 14:00N 37°49' W 122°24'1 1.2
2018-Feb-20 13:30N 37°49' W 122°25'0 0.0
2018-Feb-20 04:19N 37°49' W 122°25'411.9
2018-Feb-20 04:01N 37°48' W 122°20'2 4.1
2018-Feb-20 03:30N 37°47' W 122°18'5 9.3
2018-Feb-20 03:01N 37°48' W 122°23'0 0.8
2018-Feb-20 02:30N 37°48' W 122°23'510.5
2018-Feb-20 02:01N 37°48' W 122°17'510.5
2018-Feb-20 01:30N 37°48' W 122°24'1 2.6
2018-Feb-20 01:00N 37°49' W 122°25'612.7
2018-Feb-20 00:31N 37°48' W 122°17'510.5
2018-Feb-20 00:00N 37°48' W 122°24'1 2.6
2018-Feb-19 23:30N 37°49' W 122°25'0 0.0
2018-Feb-19 23:00N 37°49' W 122°25'0 0.0
2018-Feb-19 22:30N 37°49' W 122°25'4 7.2
2018-Feb-19 22:01N 37°48' W 122°20'2 4.3
2018-Feb-19 21:31N 37°47' W 122°18'611.4
2018-Feb-19 21:00N 37°49' W 122°25'1 1.6
2018-Feb-19 20:30N 37°49' W 122°24'611.1
2018-Feb-19 20:00N 37°48' W 122°17'510.7
2018-Feb-19 19:31N 37°48' W 122°24'1 2.6
2018-Feb-19 19:00N 37°49' W 122°25'0 0.1
2018-Feb-19 18:30N 37°49' W 122°25'0 0.0
2018-Feb-18 23:45N 37°49' W 122°25'0 0.0
2018-Feb-18 23:30N 37°49' W 122°25'511.0
2018-Feb-18 23:00N 37°48' W 122°18'0 0.4
2018-Feb-18 22:31N 37°47' W 122°18'510.6
2018-Feb-18 22:00N 37°49' W 122°25'0 0.0
2018-Feb-18 21:30N 37°49' W 122°25'0 0.0
2018-Feb-18 21:00N 37°49' W 122°25'0 0.0
2018-Feb-18 20:30N 37°49' W 122°25'1 2.3
2018-Feb-18 20:00N 37°48' W 122°23'510.2
2018-Feb-18 19:31N 37°48' W 122°17'3 5.1
2018-Feb-18 19:00N 37°48' W 122°20'4 7.4
2018-Feb-18 18:30N 37°49' W 122°25'611.4
2018-Feb-18 18:01N 37°47' W 122°18'0 0.3
2018-Feb-18 17:30N 37°48' W 122°18'611.4
2018-Feb-18 17:00N 37°49' W 122°25'0 0.0
2018-Feb-18 16:30N 37°49' W 122°25'0 0.0
2018-Feb-17 23:50N 37°49' W 122°25'0 0.4
2018-Feb-17 23:30N 37°49' W 122°25'612.6
2018-Feb-17 23:00N 37°48' W 122°17'2 3.6
2018-Feb-17 22:31N 37°48' W 122°19'4 8.8
2018-Feb-17 22:00N 37°49' W 122°25'0 0.0
2018-Feb-17 21:30N 37°49' W 122°25'0 0.0
2018-Feb-17 21:00N 37°49' W 122°25'0 0.0
2018-Feb-17 20:30N 37°49' W 122°25'1 2.6
2018-Feb-17 20:01N 37°48' W 122°24'510.6
2018-Feb-17 19:30N 37°48' W 122°17'4 7.2
2018-Feb-17 19:01N 37°48' W 122°21'3 5.7
2018-Feb-17 18:30N 37°49' W 122°25'611.4
2018-Feb-17 18:01N 37°47' W 122°18'0 0.4
2018-Feb-17 17:30N 37°48' W 122°17'611.7
2018-Feb-17 17:00N 37°49' W 122°25'0 0.0
2018-Feb-17 16:30N 37°49' W 122°25'0 0.0
2018-Feb-17 06:42N 37°49' W 122°25'0 0.0
2018-Feb-17 06:31N 37°49' W 122°25'612.7
2018-Feb-17 06:01N 37°48' W 122°17'510.6
2018-Feb-17 05:31N 37°48' W 122°24'5 9.3
2018-Feb-17 05:01N 37°48' W 122°18'1 1.3
2018-Feb-17 04:30N 37°48' W 122°17'0 0.0
2018-Feb-17 04:00N 37°48' W 122°17'0 0.0
2018-Feb-17 03:30N 37°48' W 122°17'4 7.6
2018-Feb-17 03:01N 37°47' W 122°22'1 2.9
2018-Feb-17 02:31N 37°48' W 122°20'2 3.3
2018-Feb-17 02:00N 37°47' W 122°18'5 9.0
2018-Feb-17 01:30N 37°48' W 122°24'510.6
2018-Feb-17 01:01N 37°48' W 122°17'510.2
2018-Feb-17 00:30N 37°48' W 122°24'2 4.6
2018-Feb-17 00:01N 37°48' W 122°21'2 4.9
2018-Feb-16 23:31N 37°47' W 122°18'5 9.9
2018-Feb-16 23:01N 37°49' W 122°24'1 1.7
2018-Feb-16 22:30N 37°49' W 122°25'0 0.0
2018-Feb-16 22:00N 37°49' W 122°25'0 0.0
2018-Feb-16 21:30N 37°49' W 122°25'0 0.0
2018-Feb-16 21:00N 37°49' W 122°25'0 0.0
2018-Feb-16 20:30N 37°49' W 122°25'3 5.5
2018-Feb-16 20:00N 37°48' W 122°21'3 6.0
2018-Feb-16 19:31N 37°47' W 122°18'611.3
2018-Feb-16 19:00N 37°49' W 122°25'0 0.0
2018-Feb-16 18:30N 37°49' W 122°25'0 0.0
2018-Feb-16 18:00N 37°49' W 122°25'0 0.0
2018-Feb-16 17:29N 37°49' W 122°25'2 5.2
2018-Feb-16 17:01N 37°48' W 122°22'4 7.9
2018-Feb-16 16:30N 37°48' W 122°17'510.7
2018-Feb-16 16:01N 37°48' W 122°24'510.5
2018-Feb-16 15:30N 37°48' W 122°17'510.8
2018-Feb-16 15:00N 37°48' W 122°24'510.6
2018-Feb-16 14:31N 37°48' W 122°17'4 7.8
2018-Feb-16 14:01N 37°48' W 122°22'2 5.0
2018-Feb-16 13:30N 37°49' W 122°25'0 0.0
2018-Feb-16 04:46N 37°49' W 122°25'1 2.7
2018-Feb-16 04:30N 37°49' W 122°24'611.5
2018-Feb-16 04:00N 37°48' W 122°17'4 8.9
2018-Feb-16 03:30N 37°47' W 122°22'4 8.5
2018-Feb-16 03:01N 37°48' W 122°17'4 8.1
2018-Feb-16 02:30N 37°48' W 122°22'4 8.4
2018-Feb-16 02:01N 37°48' W 122°17'2 4.3
2018-Feb-16 01:31N 37°48' W 122°20'3 6.3
2018-Feb-16 01:00N 37°48' W 122°24'2 3.0
2018-Feb-16 00:31N 37°48' W 122°22'3 6.2
2018-Feb-16 00:00N 37°47' W 122°18'611.6
2018-Feb-15 23:31N 37°49' W 122°25'0 0.0
2018-Feb-15 23:00N 37°49' W 122°25'0 0.0
2018-Feb-15 22:30N 37°49' W 122°25'0 0.0
2018-Feb-15 22:00N 37°49' W 122°25'0 0.0
2018-Feb-15 21:30N 37°49' W 122°25'0 0.0
2018-Feb-15 21:00N 37°49' W 122°25'0 0.0
2018-Feb-15 20:30N 37°49' W 122°25'3 5.6
2018-Feb-15 20:00N 37°48' W 122°21'3 5.8
2018-Feb-15 19:31N 37°47' W 122°18'611.3
2018-Feb-15 19:00N 37°49' W 122°25'1 1.8
2018-Feb-15 18:30N 37°48' W 122°24'0 0.0
2018-Feb-15 18:00N 37°48' W 122°24'0 0.0
2018-Feb-15 17:30N 37°48' W 122°24'2 3.8
2018-Feb-15 17:01N 37°48' W 122°21'4 7.3
2018-Feb-15 16:30N 37°48' W 122°17'510.5
2018-Feb-15 16:01N 37°48' W 122°23'510.5
2018-Feb-15 15:30N 37°48' W 122°17'510.6
2018-Feb-15 15:00N 37°48' W 122°24'510.7
2018-Feb-15 14:31N 37°48' W 122°17'5 9.0
2018-Feb-15 14:01N 37°48' W 122°22'2 0.2
2018-Feb-15 06:35N 37°49' W 122°25'0 0.0
2018-Feb-15 06:30N 37°49' W 122°25'612.8
2018-Feb-15 06:00N 37°48' W 122°17'510.5
2018-Feb-15 05:30N 37°48' W 122°24'0 0.0
2018-Feb-15 05:00N 37°48' W 122°24'0 0.0
2018-Feb-15 04:30N 37°48' W 122°24'0 0.0
2018-Feb-15 04:00N 37°48' W 122°24'510.6
2018-Feb-15 03:30N 37°48' W 122°17'510.3
2018-Feb-15 03:01N 37°48' W 122°23'5 9.3
2018-Feb-15 02:30N 37°48' W 122°17'0 0.8
2018-Feb-15 02:01N 37°47' W 122°18'4 8.9
2018-Feb-15 01:31N 37°48' W 122°23'510.3
2018-Feb-15 01:00N 37°48' W 122°17'510.3
2018-Feb-15 00:30N 37°48' W 122°24'4 8.3
2018-Feb-15 00:00N 37°48' W 122°18'0 0.5
2018-Feb-14 23:30N 37°47' W 122°18'510.5
2018-Feb-14 22:59N 37°49' W 122°25'0 0.3
2018-Feb-14 22:29N 37°49' W 122°25'0 0.0
2018-Feb-14 22:00N 37°49' W 122°25'0 0.0
2018-Feb-14 21:30N 37°49' W 122°25'0 0.0
2018-Feb-14 21:00N 37°49' W 122°25'0 0.0
2018-Feb-14 20:28N 37°49' W 122°25'510.5
2018-Feb-14 20:01N 37°48' W 122°19'1 1.9
2018-Feb-14 19:30N 37°47' W 122°18'611.4
2018-Feb-14 19:00N 37°49' W 122°25'0 0.0
2018-Feb-14 18:30N 37°49' W 122°25'0 0.0
2018-Feb-14 18:00N 37°49' W 122°25'0 0.0
2018-Feb-14 17:30N 37°49' W 122°25'3 6.6
2018-Feb-14 17:01N 37°48' W 122°21'2 5.0
2018-Feb-14 16:31N 37°48' W 122°18'1 2.5
2018-Feb-14 16:01N 37°48' W 122°19'1 1.6
2018-Feb-14 15:30N 37°47' W 122°18'0 0.2
2018-Feb-14 15:00N 37°47' W 122°18'1 2.4
2018-Feb-14 14:30N 37°48' W 122°17'5 9.7
2018-Feb-14 14:01N 37°48' W 122°23'2 3.0
2018-Feb-14 13:30N 37°49' W 122°25'0 0.0
2018-Feb-14 06:35N 37°49' W 122°25'0 0.8
2018-Feb-14 06:31N 37°49' W 122°25'612.7
2018-Feb-14 06:01N 37°48' W 122°17'510.6
2018-Feb-14 05:30N 37°48' W 122°24'0 0.0
2018-Feb-14 05:00N 37°48' W 122°24'0 0.0
2018-Feb-14 04:30N 37°48' W 122°24'0 0.0
2018-Feb-14 04:00N 37°48' W 122°24'510.6
2018-Feb-14 03:30N 37°48' W 122°17'5 9.3
2018-Feb-14 03:01N 37°48' W 122°23'2 3.3
2018-Feb-14 02:31N 37°48' W 122°21'2 4.6
2018-Feb-14 02:00N 37°47' W 122°18'4 9.0
2018-Feb-14 01:31N 37°48' W 122°23'5 9.8
2018-Feb-14 01:00N 37°48' W 122°17'510.2
2018-Feb-14 00:30N 37°48' W 122°24'3 6.8
2018-Feb-14 00:01N 37°48' W 122°19'1 2.4
2018-Feb-13 23:30N 37°47' W 122°18'611.1
2018-Feb-13 23:00N 37°49' W 122°25'0 0.4
2018-Feb-13 22:30N 37°49' W 122°25'0 0.0
2018-Feb-13 22:00N 37°49' W 122°25'0 0.0
2018-Feb-13 21:30N 37°49' W 122°25'0 0.0
2018-Feb-13 21:00N 37°49' W 122°25'0 0.0
2018-Feb-13 20:30N 37°49' W 122°25'4 9.0
2018-Feb-13 20:01N 37°48' W 122°19'1 2.6
2018-Feb-13 19:31N 37°47' W 122°18'611.4
2018-Feb-13 19:00N 37°49' W 122°25'0 0.0
2018-Feb-13 18:30N 37°49' W 122°25'1 1.9
2018-Feb-13 18:00N 37°48' W 122°24'0 0.0
2018-Feb-13 17:30N 37°48' W 122°24'2 4.5
2018-Feb-13 17:01N 37°48' W 122°21'3 6.6
2018-Feb-13 16:31N 37°48' W 122°17'510.2
2018-Feb-13 16:01N 37°48' W 122°23'510.2
2018-Feb-13 15:30N 37°48' W 122°17'510.6
2018-Feb-13 15:00N 37°48' W 122°24'510.6
2018-Feb-13 14:31N 37°48' W 122°17'4 8.4
2018-Feb-13 14:01N 37°48' W 122°22'2 4.0
2018-Feb-13 13:29N 37°49' W 122°25'0 0.0
2018-Feb-13 06:36N 37°49' W 122°25'0 0.0
2018-Feb-13 06:30N 37°49' W 122°25'612.7
2018-Feb-13 06:01N 37°48' W 122°17'510.6
2018-Feb-13 05:31N 37°48' W 122°24'0 0.0
2018-Feb-13 05:00N 37°48' W 122°24'0 0.0
2018-Feb-13 04:30N 37°48' W 122°24'0 0.0
2018-Feb-13 04:00N 37°48' W 122°24'510.3
2018-Feb-13 03:30N 37°48' W 122°17'4 7.7
2018-Feb-13 03:01N 37°48' W 122°22'2 4.5
2018-Feb-13 02:31N 37°48' W 122°19'1 1.4
2018-Feb-13 02:00N 37°48' W 122°18'3 5.7
2018-Feb-13 01:31N 37°48' W 122°22'3 6.5
2018-Feb-13 01:00N 37°47' W 122°18'5 9.4
2018-Feb-13 00:30N 37°48' W 122°24'4 8.5
2018-Feb-13 00:01N 37°48' W 122°18'0 0.5
2018-Feb-12 23:31N 37°47' W 122°18'510.9
2018-Feb-12 23:00N 37°49' W 122°25'0 0.8
2018-Feb-12 22:30N 37°49' W 122°25'0 0.0
2018-Feb-12 22:00N 37°49' W 122°25'0 0.0
2018-Feb-12 21:30N 37°49' W 122°25'0 0.0
2018-Feb-12 21:00N 37°49' W 122°25'0 0.0
2018-Feb-12 20:30N 37°49' W 122°25'4 7.4
2018-Feb-12 20:00N 37°48' W 122°20'2 4.0
2018-Feb-12 19:30N 37°47' W 122°18'611.4
2018-Feb-12 19:01N 37°49' W 122°25'0 0.0
2018-Feb-12 18:30N 37°49' W 122°25'0 0.0
2018-Feb-12 18:00N 37°49' W 122°25'0 0.0
2018-Feb-12 17:30N 37°49' W 122°25'4 7.2
2018-Feb-12 17:00N 37°48' W 122°20'3 5.2
2018-Feb-12 16:30N 37°48' W 122°17'510.0
2018-Feb-12 16:00N 37°48' W 122°23'510.2
2018-Feb-12 15:31N 37°48' W 122°17'510.6
2018-Feb-12 15:01N 37°48' W 122°24'510.5
2018-Feb-12 14:30N 37°48' W 122°17'1 2.8
2018-Feb-12 14:01N 37°48' W 122°19'5 9.9
2018-Feb-12 13:30N 37°49' W 122°25'0 0.0
2018-Feb-11 23:50N 37°49' W 122°25'0 0.0
2018-Feb-11 23:30N 37°49' W 122°25'611.2
2018-Feb-11 23:00N 37°48' W 122°18'0 0.8
2018-Feb-11 22:31N 37°48' W 122°18'510.4
2018-Feb-11 22:00N 37°49' W 122°25'0 0.0
2018-Feb-11 21:30N 37°49' W 122°25'0 0.0
2018-Feb-11 21:00N 37°49' W 122°25'0 0.0
2018-Feb-11 20:30N 37°49' W 122°25'1 2.6
2018-Feb-11 20:00N 37°48' W 122°24'510.6
2018-Feb-11 19:30N 37°48' W 122°17'3 6.9
2018-Feb-11 19:01N 37°48' W 122°21'3 5.4
2018-Feb-11 18:28N 37°49' W 122°25'612.6
2018-Feb-11 18:00N 37°47' W 122°18'0 0.2
2018-Feb-11 17:30N 37°48' W 122°18'611.2
2018-Feb-11 17:00N 37°49' W 122°25'0 0.0
2018-Feb-11 16:30N 37°49' W 122°25'0 0.0
2018-Feb-11 05:07N 37°49' W 122°25'0 0.0
2018-Feb-11 05:00N 37°49' W 122°25'  
Track history (hours):
 
Tides and Currents Weather Stations Pressure Air Temp Water Temp Dewpoint Dewpoint Depression Visibility Wind Speed Wind Dir Waves Ship Positions

Hydrus

Owner: San Francisco Bay Area Water Emergency Transportation Authority, San Francisco, CA. More information available from US FCC via Universal Licensing System and Coast Guard Vessel Documentation Center.

Last reported at 2018-Feb-21 04:57 UTC. Time now 2018-Feb-23 16:09 UTC.
Position N 37°48' W 122°24'.

Length 41 m; draft 2 m.

Type: Passenger vessel. MMSI: 367765240.

Date/timePositionNaut miles runAvg speedWind from/ knotsBaromVisibWave heightAir tempDewpointWater temp
2018-Feb-21 04:57N 37°48' W 122°24'1 1.7
2018-Feb-21 04:30N 37°48' W 122°23'5 9.7
2018-Feb-21 04:00N 37°48' W 122°17'510.6
2018-Feb-21 03:30N 37°48' W 122°24'510.2
2018-Feb-21 03:01N 37°48' W 122°17'4 8.3
2018-Feb-21 02:31N 37°48' W 122°22'4 8.1
2018-Feb-21 02:00N 37°48' W 122°17'2 3.5
2018-Feb-21 01:30N 37°48' W 122°19'3 6.6
2018-Feb-21 01:01N 37°48' W 122°24'1 1.8
2018-Feb-21 00:30N 37°48' W 122°22'4 7.6
2018-Feb-21 00:00N 37°47' W 122°18'611.3
2018-Feb-20 23:30N 37°49' W 122°25'2 3.3
2018-Feb-20 23:01N 37°48' W 122°23'4 8.7
2018-Feb-20 22:30N 37°48' W 122°17'5 9.7
2018-Feb-20 22:00N 37°48' W 122°24'1 2.6
2018-Feb-20 21:31N 37°49' W 122°25'0 0.0
2018-Feb-20 21:01N 37°49' W 122°25'0 0.0
2018-Feb-20 20:31N 37°49' W 122°25'2 4.1
2018-Feb-20 20:01N 37°48' W 122°22'4 7.4
2018-Feb-20 19:31N 37°47' W 122°18'611.3
2018-Feb-20 19:00N 37°49' W 122°25'0 0.0
2018-Feb-20 18:30N 37°49' W 122°25'0 0.0
2018-Feb-20 18:00N 37°49' W 122°25'0 0.0
2018-Feb-20 17:30N 37°49' W 122°25'2 4.6
2018-Feb-20 17:01N 37°48' W 122°22'4 8.2
2018-Feb-20 16:30N 37°48' W 122°17'510.7
2018-Feb-20 16:01N 37°48' W 122°24'510.6
2018-Feb-20 15:30N 37°48' W 122°17'510.4
2018-Feb-20 15:00N 37°48' W 122°24'510.8
2018-Feb-20 14:30N 37°48' W 122°17'611.7
2018-Feb-20 14:00N 37°49' W 122°24'1 1.2
2018-Feb-20 13:30N 37°49' W 122°25'0 0.0
2018-Feb-20 04:19N 37°49' W 122°25'411.9
2018-Feb-20 04:01N 37°48' W 122°20'2 4.1
2018-Feb-20 03:30N 37°47' W 122°18'5 9.3
2018-Feb-20 03:01N 37°48' W 122°23'0 0.8
2018-Feb-20 02:30N 37°48' W 122°23'510.5
2018-Feb-20 02:01N 37°48' W 122°17'510.5
2018-Feb-20 01:30N 37°48' W 122°24'1 2.6
2018-Feb-20 01:00N 37°49' W 122°25'612.7
2018-Feb-20 00:31N 37°48' W 122°17'510.5
2018-Feb-20 00:00N 37°48' W 122°24'1 2.6
2018-Feb-19 23:30N 37°49' W 122°25'0 0.0
2018-Feb-19 23:00N 37°49' W 122°25'0 0.0
2018-Feb-19 22:30N 37°49' W 122°25'4 7.2
2018-Feb-19 22:01N 37°48' W 122°20'2 4.3
2018-Feb-19 21:31N 37°47' W 122°18'611.4
2018-Feb-19 21:00N 37°49' W 122°25'1 1.6
2018-Feb-19 20:30N 37°49' W 122°24'611.1
2018-Feb-19 20:00N 37°48' W 122°17'510.7
2018-Feb-19 19:31N 37°48' W 122°24'1 2.6
2018-Feb-19 19:00N 37°49' W 122°25'0 0.1
2018-Feb-19 18:30N 37°49' W 122°25'0 0.0
2018-Feb-18 23:45N 37°49' W 122°25'0 0.0
2018-Feb-18 23:30N 37°49' W 122°25'511.0
2018-Feb-18 23:00N 37°48' W 122°18'0 0.4
2018-Feb-18 22:31N 37°47' W 122°18'510.6
2018-Feb-18 22:00N 37°49' W 122°25'0 0.0
2018-Feb-18 21:30N 37°49' W 122°25'0 0.0
2018-Feb-18 21:00N 37°49' W 122°25'0 0.0
2018-Feb-18 20:30N 37°49' W 122°25'1 2.3
2018-Feb-18 20:00N 37°48' W 122°23'510.2
2018-Feb-18 19:31N 37°48' W 122°17'3 5.1
2018-Feb-18 19:00N 37°48' W 122°20'4 7.4
2018-Feb-18 18:30N 37°49' W 122°25'611.4
2018-Feb-18 18:01N 37°47' W 122°18'0 0.3
2018-Feb-18 17:30N 37°48' W 122°18'611.4
2018-Feb-18 17:00N 37°49' W 122°25'0 0.0
2018-Feb-18 16:30N 37°49' W 122°25'0 0.0
2018-Feb-17 23:50N 37°49' W 122°25'0 0.4
2018-Feb-17 23:30N 37°49' W 122°25'612.6
2018-Feb-17 23:00N 37°48' W 122°17'2 3.6
2018-Feb-17 22:31N 37°48' W 122°19'4 8.8
2018-Feb-17 22:00N 37°49' W 122°25'0 0.0
2018-Feb-17 21:30N 37°49' W 122°25'0 0.0
2018-Feb-17 21:00N 37°49' W 122°25'0 0.0
2018-Feb-17 20:30N 37°49' W 122°25'1 2.6
2018-Feb-17 20:01N 37°48' W 122°24'510.6
2018-Feb-17 19:30N 37°48' W 122°17'4 7.2
2018-Feb-17 19:01N 37°48' W 122°21'3 5.7
2018-Feb-17 18:30N 37°49' W 122°25'611.4
2018-Feb-17 18:01N 37°47' W 122°18'0 0.4
2018-Feb-17 17:30N 37°48' W 122°17'611.7
2018-Feb-17 17:00N 37°49' W 122°25'0 0.0
2018-Feb-17 16:30N 37°49' W 122°25'0 0.0
2018-Feb-17 06:42N 37°49' W 122°25'0 0.0
2018-Feb-17 06:31N 37°49' W 122°25'612.7
2018-Feb-17 06:01N 37°48' W 122°17'510.6
2018-Feb-17 05:31N 37°48' W 122°24'5 9.3
2018-Feb-17 05:01N 37°48' W 122°18'1 1.3
2018-Feb-17 04:30N 37°48' W 122°17'0 0.0
2018-Feb-17 04:00N 37°48' W 122°17'0 0.0
2018-Feb-17 03:30N 37°48' W 122°17'4 7.6
2018-Feb-17 03:01N 37°47' W 122°22'1 2.9
2018-Feb-17 02:31N 37°48' W 122°20'2 3.3
2018-Feb-17 02:00N 37°47' W 122°18'5 9.0
2018-Feb-17 01:30N 37°48' W 122°24'510.6
2018-Feb-17 01:01N 37°48' W 122°17'510.2
2018-Feb-17 00:30N 37°48' W 122°24'2 4.6
2018-Feb-17 00:01N 37°48' W 122°21'2 4.9
2018-Feb-16 23:31N 37°47' W 122°18'5 9.9
2018-Feb-16 23:01N 37°49' W 122°24'1 1.7
2018-Feb-16 22:30N 37°49' W 122°25'0 0.0
2018-Feb-16 22:00N 37°49' W 122°25'0 0.0
2018-Feb-16 21:30N 37°49' W 122°25'0 0.0
2018-Feb-16 21:00N 37°49' W 122°25'0 0.0
2018-Feb-16 20:30N 37°49' W 122°25'3 5.5
2018-Feb-16 20:00N 37°48' W 122°21'3 6.0
2018-Feb-16 19:31N 37°47' W 122°18'611.3
2018-Feb-16 19:00N 37°49' W 122°25'0 0.0
2018-Feb-16 18:30N 37°49' W 122°25'0 0.0
2018-Feb-16 18:00N 37°49' W 122°25'0 0.0
2018-Feb-16 17:29N 37°49' W 122°25'2 5.2
2018-Feb-16 17:01N 37°48' W 122°22'4 7.9
2018-Feb-16 16:30N 37°48' W 122°17'510.7
2018-Feb-16 16:01N 37°48' W 122°24'510.5
2018-Feb-16 15:30N 37°48' W 122°17'510.8
2018-Feb-16 15:00N 37°48' W 122°24'510.6
2018-Feb-16 14:31N 37°48' W 122°17'4 7.8
2018-Feb-16 14:01N 37°48' W 122°22'2 5.0
2018-Feb-16 13:30N 37°49' W 122°25'0 0.0
2018-Feb-16 04:46N 37°49' W 122°25'1 2.7
2018-Feb-16 04:30N 37°49' W 122°24'611.5
2018-Feb-16 04:00N 37°48' W 122°17'4 8.9
2018-Feb-16 03:30N 37°47' W 122°22'4 8.5
2018-Feb-16 03:01N 37°48' W 122°17'4 8.1
2018-Feb-16 02:30N 37°48' W 122°22'4 8.4
2018-Feb-16 02:01N 37°48' W 122°17'2 4.3
2018-Feb-16 01:31N 37°48' W 122°20'3 6.3
2018-Feb-16 01:00N 37°48' W 122°24'2 3.0
2018-Feb-16 00:31N 37°48' W 122°22'3 6.2
2018-Feb-16 00:00N 37°47' W 122°18'611.6
2018-Feb-15 23:31N 37°49' W 122°25'0 0.0
2018-Feb-15 23:00N 37°49' W 122°25'0 0.0
2018-Feb-15 22:30N 37°49' W 122°25'0 0.0
2018-Feb-15 22:00N 37°49' W 122°25'0 0.0
2018-Feb-15 21:30N 37°49' W 122°25'0 0.0
2018-Feb-15 21:00N 37°49' W 122°25'0 0.0
2018-Feb-15 20:30N 37°49' W 122°25'3 5.6
2018-Feb-15 20:00N 37°48' W 122°21'3 5.8
2018-Feb-15 19:31N 37°47' W 122°18'611.3
2018-Feb-15 19:00N 37°49' W 122°25'1 1.8
2018-Feb-15 18:30N 37°48' W 122°24'0 0.0
2018-Feb-15 18:00N 37°48' W 122°24'0 0.0
2018-Feb-15 17:30N 37°48' W 122°24'2 3.8
2018-Feb-15 17:01N 37°48' W 122°21'4 7.3
2018-Feb-15 16:30N 37°48' W 122°17'510.5
2018-Feb-15 16:01N 37°48' W 122°23'510.5
2018-Feb-15 15:30N 37°48' W 122°17'510.6
2018-Feb-15 15:00N 37°48' W 122°24'510.7
2018-Feb-15 14:31N 37°48' W 122°17'5 9.0
2018-Feb-15 14:01N 37°48' W 122°22'2 0.2
2018-Feb-15 06:35N 37°49' W 122°25'0 0.0
2018-Feb-15 06:30N 37°49' W 122°25'612.8
2018-Feb-15 06:00N 37°48' W 122°17'510.5
2018-Feb-15 05:30N 37°48' W 122°24'0 0.0
2018-Feb-15 05:00N 37°48' W 122°24'0 0.0
2018-Feb-15 04:30N 37°48' W 122°24'0 0.0
2018-Feb-15 04:00N 37°48' W 122°24'510.6
2018-Feb-15 03:30N 37°48' W 122°17'510.3
2018-Feb-15 03:01N 37°48' W 122°23'5 9.3
2018-Feb-15 02:30N 37°48' W 122°17'0 0.8
2018-Feb-15 02:01N 37°47' W 122°18'4 8.9
2018-Feb-15 01:31N 37°48' W 122°23'510.3
2018-Feb-15 01:00N 37°48' W 122°17'510.3
2018-Feb-15 00:30N 37°48' W 122°24'4 8.3
2018-Feb-15 00:00N 37°48' W 122°18'0 0.5
2018-Feb-14 23:30N 37°47' W 122°18'510.5
2018-Feb-14 22:59N 37°49' W 122°25'0 0.3
2018-Feb-14 22:29N 37°49' W 122°25'0 0.0
2018-Feb-14 22:00N 37°49' W 122°25'0 0.0
2018-Feb-14 21:30N 37°49' W 122°25'0 0.0
2018-Feb-14 21:00N 37°49' W 122°25'0 0.0
2018-Feb-14 20:28N 37°49' W 122°25'510.5
2018-Feb-14 20:01N 37°48' W 122°19'1 1.9
2018-Feb-14 19:30N 37°47' W 122°18'611.4
2018-Feb-14 19:00N 37°49' W 122°25'0 0.0
2018-Feb-14 18:30N 37°49' W 122°25'0 0.0
2018-Feb-14 18:00N 37°49' W 122°25'0 0.0
2018-Feb-14 17:30N 37°49' W 122°25'3 6.6
2018-Feb-14 17:01N 37°48' W 122°21'2 5.0
2018-Feb-14 16:31N 37°48' W 122°18'1 2.5
2018-Feb-14 16:01N 37°48' W 122°19'1 1.6
2018-Feb-14 15:30N 37°47' W 122°18'0 0.2
2018-Feb-14 15:00N 37°47' W 122°18'1 2.4
2018-Feb-14 14:30N 37°48' W 122°17'5 9.7
2018-Feb-14 14:01N 37°48' W 122°23'2 3.0
2018-Feb-14 13:30N 37°49' W 122°25'0 0.0
2018-Feb-14 06:35N 37°49' W 122°25'0 0.8
2018-Feb-14 06:31N 37°49' W 122°25'612.7
2018-Feb-14 06:01N 37°48' W 122°17'510.6
2018-Feb-14 05:30N 37°48' W 122°24'0 0.0
2018-Feb-14 05:00N 37°48' W 122°24'0 0.0
2018-Feb-14 04:30N 37°48' W 122°24'0 0.0
2018-Feb-14 04:00N 37°48' W 122°24'510.6
2018-Feb-14 03:30N 37°48' W 122°17'5 9.3
2018-Feb-14 03:01N 37°48' W 122°23'2 3.3
2018-Feb-14 02:31N 37°48' W 122°21'2 4.6
2018-Feb-14 02:00N 37°47' W 122°18'4 9.0
2018-Feb-14 01:31N 37°48' W 122°23'5 9.8
2018-Feb-14 01:00N 37°48' W 122°17'510.2
2018-Feb-14 00:30N 37°48' W 122°24'3 6.8
2018-Feb-14 00:01N 37°48' W 122°19'1 2.4
2018-Feb-13 23:30N 37°47' W 122°18'611.1
2018-Feb-13 23:00N 37°49' W 122°25'0 0.4
2018-Feb-13 22:30N 37°49' W 122°25'0 0.0
2018-Feb-13 22:00N 37°49' W 122°25'0 0.0
2018-Feb-13 21:30N 37°49' W 122°25'0 0.0
2018-Feb-13 21:00N 37°49' W 122°25'0 0.0
2018-Feb-13 20:30N 37°49' W 122°25'4 9.0
2018-Feb-13 20:01N 37°48' W 122°19'1 2.6
2018-Feb-13 19:31N 37°47' W 122°18'611.4
2018-Feb-13 19:00N 37°49' W 122°25'0 0.0
2018-Feb-13 18:30N 37°49' W 122°25'1 1.9
2018-Feb-13 18:00N 37°48' W 122°24'0 0.0
2018-Feb-13 17:30N 37°48' W 122°24'2 4.5
2018-Feb-13 17:01N 37°48' W 122°21'3 6.6
2018-Feb-13 16:31N 37°48' W 122°17'510.2
2018-Feb-13 16:01N 37°48' W 122°23'510.2
2018-Feb-13 15:30N 37°48' W 122°17'510.6
2018-Feb-13 15:00N 37°48' W 122°24'510.6
2018-Feb-13 14:31N 37°48' W 122°17'4 8.4
2018-Feb-13 14:01N 37°48' W 122°22'2 4.0
2018-Feb-13 13:29N 37°49' W 122°25'0 0.0
2018-Feb-13 06:36N 37°49' W 122°25'0 0.0
2018-Feb-13 06:30N 37°49' W 122°25'612.7
2018-Feb-13 06:01N 37°48' W 122°17'510.6
2018-Feb-13 05:31N 37°48' W 122°24'0 0.0
2018-Feb-13 05:00N 37°48' W 122°24'0 0.0
2018-Feb-13 04:30N 37°48' W 122°24'0 0.0
2018-Feb-13 04:00N 37°48' W 122°24'510.3
2018-Feb-13 03:30N 37°48' W 122°17'4 7.7
2018-Feb-13 03:01N 37°48' W 122°22'2 4.5
2018-Feb-13 02:31N 37°48' W 122°19'1 1.4
2018-Feb-13 02:00N 37°48' W 122°18'3 5.7
2018-Feb-13 01:31N 37°48' W 122°22'3 6.5
2018-Feb-13 01:00N 37°47' W 122°18'5 9.4
2018-Feb-13 00:30N 37°48' W 122°24'4 8.5
2018-Feb-13 00:01N 37°48' W 122°18'0 0.5
2018-Feb-12 23:31N 37°47' W 122°18'510.9
2018-Feb-12 23:00N 37°49' W 122°25'0 0.8
2018-Feb-12 22:30N 37°49' W 122°25'0 0.0
2018-Feb-12 22:00N 37°49' W 122°25'0 0.0
2018-Feb-12 21:30N 37°49' W 122°25'0 0.0
2018-Feb-12 21:00N 37°49' W 122°25'0 0.0
2018-Feb-12 20:30N 37°49' W 122°25'4 7.4
2018-Feb-12 20:00N 37°48' W 122°20'2 4.0
2018-Feb-12 19:30N 37°47' W 122°18'611.4
2018-Feb-12 19:01N 37°49' W 122°25'0 0.0
2018-Feb-12 18:30N 37°49' W 122°25'0 0.0
2018-Feb-12 18:00N 37°49' W 122°25'0 0.0
2018-Feb-12 17:30N 37°49' W 122°25'4 7.2
2018-Feb-12 17:00N 37°48' W 122°20'3 5.2
2018-Feb-12 16:30N 37°48' W 122°17'510.0
2018-Feb-12 16:00N 37°48' W 122°23'510.2
2018-Feb-12 15:31N 37°48' W 122°17'510.6
2018-Feb-12 15:01N 37°48' W 122°24'510.5
2018-Feb-12 14:30N 37°48' W 122°17'1 2.8
2018-Feb-12 14:01N 37°48' W 122°19'5 9.9
2018-Feb-12 13:30N 37°49' W 122°25'0 0.0
2018-Feb-11 23:50N 37°49' W 122°25'0 0.0
2018-Feb-11 23:30N 37°49' W 122°25'611.2
2018-Feb-11 23:00N 37°48' W 122°18'0 0.8
2018-Feb-11 22:31N 37°48' W 122°18'510.4
2018-Feb-11 22:00N 37°49' W 122°25'0 0.0
2018-Feb-11 21:30N 37°49' W 122°25'0 0.0
2018-Feb-11 21:00N 37°49' W 122°25'0 0.0
2018-Feb-11 20:30N 37°49' W 122°25'1 2.6
2018-Feb-11 20:00N 37°48' W 122°24'510.6
2018-Feb-11 19:30N 37°48' W 122°17'3 6.9
2018-Feb-11 19:01N 37°48' W 122°21'3 5.4
2018-Feb-11 18:28N 37°49' W 122°25'612.6
2018-Feb-11 18:00N 37°47' W 122°18'0 0.2
2018-Feb-11 17:30N 37°48' W 122°18'611.2
2018-Feb-11 17:00N 37°49' W 122°25'0 0.0
2018-Feb-11 16:30N 37°49' W 122°25'0 0.0
2018-Feb-11 05:07N 37°49' W 122°25'0 0.0
2018-Feb-11 05:00N 37°49' W 122°25'  

Dump ship's entire track history